Time;durP1;ratioP1;P1;durP2;ratioP2;P2;SDS_P1;SDS_P2;PMS_P1;PMS_P2;Temp;Humidity;BMP_temperature;BMP_pressure;BME280_temperature;BME280_humidity;BME280_pressure;Samples;Min_cycle;Max_cycle;Signal;HPM_P1;HPM_P2
2021/09/12 00:02:04;;;;;;;;;190.67;161.00;;;;;17.18;63.99;101052.41;4855397;29;8903;-84
2021/09/12 00:04:59;;;;;;;;;197.67;155.33;;;;;17.19;64.00;101056.81;4883139;29;8865;-84
2021/09/12 00:07:55;;;;;;;;;153.67;127.33;;;;;17.19;63.51;101048.41;4869636;29;8861;-84
2021/09/12 00:10:50;;;;;;;;;101.00;90.00;;;;;17.13;63.00;101049.88;4868540;29;8865;-83
2021/09/12 00:13:46;;;;;;;;;91.00;84.00;;;;;17.10;62.90;101049.78;4869776;29;11744;-83
2021/09/12 00:16:42;;;;;;;;;64.75;53.75;;;;;17.11;62.29;101055.03;4871045;29;11808;-83
2021/09/12 00:19:37;;;;;;;;;62.00;51.50;;;;;16.97;61.93;101060.31;4866741;29;11657;-85
2021/09/12 00:22:33;;;;;;;;;46.50;40.25;;;;;16.97;62.01;101054.72;4879443;29;11237;-84
2021/09/12 00:25:29;;;;;;;;;60.50;49.50;;;;;16.90;63.35;101051.78;4877350;29;11200;-84
2021/09/12 00:28:25;;;;;;;;;65.50;51.50;;;;;16.79;63.99;101047.91;4867877;29;11704;-84
2021/09/12 00:31:20;;;;;;;;;71.75;52.75;;;;;17.00;63.42;101058.75;4868576;29;11438;-84
2021/09/12 00:34:17;;;;;;;;;73.25;59.50;;;;;16.85;63.60;101052.84;4868670;29;12465;-83
2021/09/12 00:37:12;;;;;;;;;71.50;57.75;;;;;16.90;63.41;101052.56;4866920;29;11725;-84
2021/09/12 00:40:08;;;;;;;;;78.50;64.75;;;;;16.95;63.15;101055.09;4867162;29;11750;-83
2021/09/12 00:43:04;;;;;;;;;83.00;78.00;;;;;16.78;63.38;101055.47;4877754;29;11817;-84
2021/09/12 00:46:06;;;;;;;;;91.75;86.00;;;;;16.90;62.97;101047.00;4867285;29;11850;-84
2021/09/12 00:49:01;;;;;;;;;111.50;93.50;;;;;16.97;62.68;101051.94;4879634;29;11723;-84
2021/09/12 00:51:57;;;;;;;;;152.33;124.33;;;;;17.00;63.19;101055.97;4866842;29;11965;-83
2021/09/12 00:54:54;;;;;;;;;203.50;176.00;;;;;16.97;62.22;101048.31;4858757;29;8988;-84
2021/09/12 00:57:50;;;;;;;;;136.00;118.67;;;;;17.04;60.97;101046.50;4876291;29;9033;-82
2021/09/12 01:00:46;;;;;;;;;143.00;121.33;;;;;16.95;59.89;101052.31;4874687;29;8869;-81
2021/09/12 01:03:41;;;;;;;;;104.50;95.00;;;;;17.14;58.92;101048.69;4861531;29;8873;-83
2021/09/12 01:06:37;;;;;;;;;118.00;104.50;;;;;17.19;59.94;101048.41;4862658;29;11768;-82
2021/09/12 01:09:34;;;;;;;;;117.50;108.75;;;;;17.24;59.00;101050.91;4861155;29;11761;-81
2021/09/12 01:12:32;;;;;;;;;132.33;117.67;;;;;17.18;61.00;101054.38;4861149;29;11772;-83
2021/09/12 01:15:28;;;;;;;;;136.00;123.33;;;;;17.17;61.37;101059.13;4862647;29;8991;-83
2021/09/12 01:18:23;;;;;;;;;127.67;115.33;;;;;17.08;61.90;101060.53;4862998;29;8960;-82
2021/09/12 01:21:21;;;;;;;;;127.67;116.33;;;;;17.22;63.84;101050.47;4858916;29;8896;-81
2021/09/12 01:24:17;;;;;;;;;146.67;133.67;;;;;17.16;59.99;101054.72;4851198;29;8891;-82
2021/09/12 01:27:13;;;;;;;;;91.50;88.50;;;;;17.24;57.21;101044.50;4862624;29;8995;-84
2021/09/12 01:30:10;;;;;;;;;104.00;96.00;;;;;17.43;58.03;101055.69;4861908;29;12510;-84
2021/09/12 01:33:06;;;;;;;;;84.00;75.50;;;;;17.50;60.23;101061.44;4865050;29;12620;-83
2021/09/12 01:36:01;;;;;;;;;107.50;100.25;;;;;17.40;60.67;101061.19;4862483;29;11756;-83
2021/09/12 01:38:57;;;;;;;;;115.25;103.25;;;;;17.17;61.48;101061.94;4862126;29;11818;-83
2021/09/12 01:41:52;;;;;;;;;128.33;122.67;;;;;17.35;61.03;101064.31;4873092;29;11786;-83
2021/09/12 01:44:50;;;;;;;;;146.33;133.33;;;;;17.31;60.50;101067.00;4861927;29;8957;-82
2021/09/12 01:47:46;;;;;;;;;145.00;137.33;;;;;17.20;60.79;101066.00;4872315;29;8865;-83
2021/09/12 01:50:41;;;;;;;;;143.33;128.33;;;;;17.12;61.91;101061.44;4860736;29;8877;-84
2021/09/12 01:53:38;;;;;;;;;152.67;146.33;;;;;17.10;62.41;101060.97;4872264;29;8872;-83
2021/09/12 01:56:34;;;;;;;;;152.67;125.67;;;;;17.08;63.85;101060.53;4862257;29;9745;-83
2021/09/12 01:59:30;;;;;;;;;120.33;113.00;;;;;16.96;65.13;101064.28;4861387;29;8861;-84
2021/09/12 02:02:25;;;;;;;;;133.67;120.33;;;;;16.93;64.51;101057.41;4860709;29;11848;-82
2021/09/12 02:05:21;;;;;;;;;135.00;119.33;;;;;16.85;64.91;101055.66;4860552;29;8884;-83
2021/09/12 02:08:17;;;;;;;;;136.00;125.00;;;;;16.78;65.18;101049.09;4871740;29;8888;-83
2021/09/12 02:11:12;;;;;;;;;119.33;113.33;;;;;16.76;65.24;101060.63;4863309;29;8865;-83
2021/09/12 02:14:08;;;;;;;;;119.33;111.67;;;;;16.62;64.17;101057.47;4861931;29;8873;-82
2021/09/12 02:17:03;;;;;;;;;131.33;115.67;;;;;16.62;64.80;101058.28;4860258;29;8901;-83
2021/09/12 02:20:00;;;;;;;;;115.33;110.67;;;;;17.24;65.14;101064.06;4864421;29;8934;-83
2021/09/12 02:22:56;;;;;;;;;122.67;113.00;;;;;17.12;62.67;101064.22;4860069;29;8892;-82
2021/09/12 02:25:51;;;;;;;;;129.33;120.00;;;;;16.87;63.56;101056.13;4861427;29;8869;-83
2021/09/12 02:28:47;;;;;;;;;140.33;128.67;;;;;16.91;64.06;101067.34;4861425;29;8873;-82
2021/09/12 02:31:42;;;;;;;;;130.33;125.00;;;;;17.04;64.32;101054.06;4860620;29;8904;-82
2021/09/12 02:34:38;;;;;;;;;128.33;120.00;;;;;17.28;64.72;101061.38;4861512;29;8887;-83
2021/09/12 02:37:33;;;;;;;;;139.67;132.00;;;;;17.00;63.91;101055.97;4861049;29;8873;-82
2021/09/12 02:40:29;;;;;;;;;133.00;125.67;;;;;16.99;63.65;101066.34;4871220;29;8857;-82
2021/09/12 02:43:26;;;;;;;;;133.00;130.00;;;;;16.84;63.87;101068.00;4860620;29;8992;-83
2021/09/12 02:46:21;;;;;;;;;109.00;99.67;;;;;16.80;64.02;101058.75;4859695;29;8967;-83
2021/09/12 02:49:17;;;;;;;;;141.33;129.00;;;;;16.66;64.69;101061.97;4860272;29;8972;-82
2021/09/12 02:52:13;;;;;;;;;149.33;139.67;;;;;16.76;64.28;101059.81;4860385;29;8908;-83
2021/09/12 02:55:10;;;;;;;;;138.00;127.67;;;;;16.77;64.81;101056.66;4860428;29;8881;-83
2021/09/12 02:58:05;;;;;;;;;166.00;148.00;;;;;16.70;64.25;101053.69;4871247;29;8937;-83
2021/09/12 03:01:01;;;;;;;;;149.67;140.00;;;;;16.82;64.88;101047.19;4862258;29;8895;-83
2021/09/12 03:03:57;;;;;;;;;150.00;138.33;;;;;16.82;64.61;101050.78;4859441;29;8883;-82
2021/09/12 03:06:52;;;;;;;;;158.67;144.00;;;;;16.82;64.32;101050.78;4860635;29;8877;-83
2021/09/12 03:09:48;;;;;;;;;140.67;125.33;;;;;16.82;64.28;101047.19;4860322;29;8883;-83
2021/09/12 03:12:44;;;;;;;;;136.67;122.67;;;;;16.80;63.86;101053.16;4871415;29;8896;-83
2021/09/12 03:15:41;;;;;;;;;118.00;112.67;;;;;16.75;62.93;101053.44;4862540;29;8873;-83
2021/09/12 03:18:36;;;;;;;;;104.25;97.75;;;;;16.68;62.75;101054.03;4860699;29;8885;-82
2021/09/12 03:21:32;;;;;;;;;82.50;74.25;;;;;16.73;62.18;101063.34;4860343;29;11769;-83
2021/09/12 03:24:28;;;;;;;;;75.25;60.75;;;;;16.62;60.32;101058.28;4859701;29;12636;-83
2021/09/12 03:27:23;;;;;;;;;77.00;64.00;;;;;16.72;59.95;101070.91;4859798;29;11671;-83
2021/09/12 03:30:20;;;;;;;;;69.00;55.75;;;;;16.70;60.17;101055.69;4861196;29;11662;-83
2021/09/12 03:33:16;;;;;;;;;81.75;74.50;;;;;16.72;60.06;101056.97;4858675;29;11652;-82
2021/09/12 03:36:12;;;;;;;;;94.25;82.00;;;;;16.74;60.34;101060.19;4870511;29;11884;-82
2021/09/12 03:39:08;;;;;;;;;92.50;79.00;;;;;16.83;61.01;101060.78;4855581;29;11762;-82
2021/09/12 03:42:03;;;;;;;;;97.75;78.00;;;;;17.09;60.84;101054.56;4870288;29;11773;-82
2021/09/12 03:44:59;;;;;;;;;89.75;82.00;;;;;17.08;60.48;101052.16;4860037;29;11936;-82
2021/09/12 03:47:54;;;;;;;;;83.00;75.75;;;;;17.08;60.45;101066.13;4870730;29;11722;-83
2021/09/12 03:50:50;;;;;;;;;86.75;85.00;;;;;17.11;61.45;101062.63;4862056;29;11846;-81
2021/09/12 03:53:46;;;;;;;;;97.50;86.00;;;;;17.00;61.49;101072.72;4858875;29;11805;-82
2021/09/12 03:56:41;;;;;;;;;101.75;94.50;;;;;16.89;61.99;101073.31;4861442;29;11745;-84
2021/09/12 03:59:37;;;;;;;;;102.25;91.50;;;;;17.07;62.17;101078.47;4851931;29;11780;-84
2021/09/12 04:02:34;;;;;;;;;97.50;87.75;;;;;17.04;62.38;101074.44;4851803;29;11750;-82
2021/09/12 04:05:29;;;;;;;;;100.50;94.50;;;;;16.94;62.06;101075.81;4842547;29;11798;-83
2021/09/12 04:08:25;;;;;;;;;109.00;95.50;;;;;17.14;62.62;101070.25;4854534;29;11850;-80
2021/09/12 04:11:21;;;;;;;;;93.33;93.33;;;;;17.23;56.21;101073.63;4840076;29;11768;-82
2021/09/12 04:14:16;;;;;;;;;90.75;88.75;;;;;17.41;56.79;101077.63;4840731;29;11861;-82
2021/09/12 04:17:12;;;;;;;;;98.33;95.67;;;;;17.57;55.72;101073.94;4847085;29;11727;-79
2021/09/12 04:20:09;;;;;;;;;113.33;109.67;;;;;17.67;54.67;101073.34;4841445;29;11781;-82
2021/09/12 04:23:04;;;;;;;;;93.25;89.00;;;;;17.76;54.80;101076.75;4842113;29;11897;-80
2021/09/12 04:26:00;;;;;;;;;105.75;99.50;;;;;18.09;53.96;101072.53;4843350;29;11768;-81
2021/09/12 04:28:56;;;;;;;;;102.50;95.25;;;;;18.27;53.73;101073.69;4868877;29;11731;-84
2021/09/12 04:32:00;;;;;;;;;89.75;82.25;;;;;18.42;57.13;101074.72;4869076;29;12504;-82
2021/09/12 04:34:56;;;;;;;;;80.25;75.00;;;;;18.59;56.81;101080.59;4878651;29;11757;-83
2021/09/12 04:37:51;;;;;;;;;92.50;88.50;;;;;18.81;53.95;101073.38;4870264;29;11790;-83
2021/09/12 04:40:47;;;;;;;;;91.25;88.50;;;;;18.99;53.46;101078.41;4859501;29;11709;-85
2021/09/12 04:43:43;;;;;;;;;101.50;94.75;;;;;18.82;51.66;101069.38;4864814;29;11720;-84
2021/09/12 04:46:38;;;;;;;;;96.50;91.75;;;;;18.99;51.49;101082.03;4853910;29;12514;-81
2021/09/12 04:49:34;;;;;;;;;89.00;87.25;;;;;19.29;56.06;101078.44;4857557;29;11893;-82
2021/09/12 04:52:29;;;;;;;;;101.25;100.00;;;;;19.39;51.68;101080.53;4856820;29;11797;-80
2021/09/12 04:55:25;;;;;;;;;97.75;92.00;;;;;19.61;52.66;101082.44;4872320;29;11731;-80
2021/09/12 04:58:21;;;;;;;;;95.25;90.00;;;;;19.44;51.02;101080.22;4862153;29;11741;-81
2021/09/12 05:01:17;;;;;;;;;84.50;80.00;;;;;19.32;50.54;101075.69;4860089;29;12527;-80
2021/09/12 05:04:12;;;;;;;;;79.50;74.50;;;;;19.41;50.76;101067.78;4861102;29;11749;-80
2021/09/12 05:07:08;;;;;;;;;78.75;74.75;;;;;19.64;51.54;101067.69;4851742;29;12468;-81
2021/09/12 05:10:04;;;;;;;;;83.00;79.50;;;;;19.81;50.67;101062.63;4843006;29;12553;-80
2021/09/12 05:12:59;;;;;;;;;81.00;78.50;;;;;19.72;50.15;101065.75;4843636;29;11729;-79
2021/09/12 05:15:55;;;;;;;;;80.00;70.75;;;;;19.90;52.05;101071.56;4857735;29;11730;-78
2021/09/12 05:18:51;;;;;;;;;87.00;82.75;;;;;20.08;50.07;101069.72;4863061;29;11752;-78
2021/09/12 05:21:47;;;;;;;;;90.25;86.50;;;;;20.14;54.27;101064.56;4860045;29;11730;-78
2021/09/12 05:24:42;;;;;;;;;93.50;87.75;;;;;20.22;54.41;101072.66;4861573;29;11883;-78
2021/09/12 05:27:38;;;;;;;;;94.50;87.50;;;;;20.00;52.34;101070.84;4859888;29;11745;-79
2021/09/12 05:30:33;;;;;;;;;98.00;89.75;;;;;20.02;51.37;101071.28;4861114;29;11827;-78
2021/09/12 05:33:32;;;;;;;;;94.75;85.75;;;;;20.42;53.37;101075.25;4871077;29;11759;-78
2021/09/12 05:36:28;;;;;;;;;94.75;85.50;;;;;20.37;51.47;101075.59;4864829;29;11768;-78
2021/09/12 05:39:23;;;;;;;;;137.00;103.75;;;;;20.52;52.80;101080.16;4871891;29;12518;-78
2021/09/12 05:42:19;;;;;;;;;90.00;82.75;;;;;20.56;51.13;101078.19;4861798;29;11772;-78
2021/09/12 05:45:14;;;;;;;;;81.00;77.25;;;;;20.64;50.72;101079.88;4853018;29;11970;-78
2021/09/12 05:48:10;;;;;;;;;83.75;79.00;;;;;20.83;50.56;101081.59;4347042;29;15144857;-78
2021/09/12 05:51:05;;;;;;;;;81.75;76.50;;;;;20.96;49.37;101090.53;4854228;29;10973;-77
2021/09/12 05:54:01;;;;;;;;;77.00;71.75;;;;;21.18;51.71;101081.00;4844301;29;11723;-77
2021/09/12 05:56:57;;;;;;;;;85.50;78.25;;;;;21.21;53.02;101085.84;4849887;29;11711;-77
2021/09/12 05:59:52;;;;;;;;;82.00;75.00;;;;;21.06;47.91;101079.31;4861625;29;11775;-76
2021/09/12 06:02:48;;;;;;;;;69.75;57.25;;;;;21.30;50.49;101074.25;4860486;29;11700;-78
2021/09/12 06:05:44;;;;;;;;;79.75;75.00;;;;;21.42;48.84;101085.16;4860247;29;11722;-76
2021/09/12 06:08:39;;;;;;;;;71.75;63.75;;;;;21.41;48.36;101077.94;4861052;29;11794;-76
2021/09/12 06:11:35;;;;;;;;;79.25;70.75;;;;;21.51;50.12;101088.41;4862076;29;11657;-77
2021/09/12 06:14:30;;;;;;;;;76.00;64.00;;;;;21.64;48.76;101086.84;4859635;29;11388;-77
2021/09/12 06:17:26;;;;;;;;;72.50;57.00;;;;;21.84;48.11;101080.88;4861246;29;11107;-77
2021/09/12 06:20:22;;;;;;;;;67.50;54.50;;;;;21.73;46.58;101080.06;4859928;29;10554;-77
2021/09/12 06:23:18;;;;;;;;;61.25;50.00;;;;;21.80;47.47;101088.50;4860061;29;10190;-78
2021/09/12 06:26:13;;;;;;;;;72.25;63.50;;;;;22.17;49.85;101091.84;4860614;29;10037;-77
2021/09/12 06:29:09;;;;;;;;;60.25;48.25;;;;;22.53;50.17;101088.22;4874232;29;10916;-78
2021/09/12 06:32:06;;;;;;;;;62.00;47.75;;;;;22.66;47.28;101087.41;4879647;29;10825;-79
2021/09/12 06:35:02;;;;;;;;;70.25;58.50;;;;;22.93;48.32;101090.63;4879799;29;9877;-82
2021/09/12 06:37:58;;;;;;;;;71.25;55.25;;;;;23.14;45.90;101094.59;4880159;29;10008;-81
2021/09/12 06:40:54;;;;;;;;;59.50;40.75;;;;;23.32;46.67;101098.19;4858837;29;10887;-80
2021/09/12 06:43:49;;;;;;;;;74.75;63.75;;;;;23.50;46.10;101101.72;4861236;29;10212;-80
2021/09/12 06:46:45;;;;;;;;;73.50;61.00;;;;;23.54;44.55;101102.53;4861209;29;9960;-82
2021/09/12 06:49:40;;;;;;;;;69.50;53.50;;;;;23.70;43.55;101101.28;4862926;29;10199;-79
2021/09/12 06:52:36;;;;;;;;;68.67;51.00;;;;;23.91;43.48;101100.34;4861701;29;9509;-81
2021/09/12 06:55:31;;;;;;;;;77.00;60.33;;;;;24.16;44.71;101108.69;4872470;29;9435;-83
2021/09/12 06:58:27;;;;;;;;;59.25;48.00;;;;;24.17;42.73;101104.63;4861988;29;9706;-79
2021/09/12 07:01:23;;;;;;;;;28.25;27.50;;;;;24.40;42.45;101110.53;4861976;29;8869;-80
2021/09/12 07:04:18;;;;;;;;;46.50;39.00;;;;;24.59;42.60;101106.34;4869765;29;8872;-83
2021/09/12 07:07:14;;;;;;;;;47.00;38.75;;;;;24.81;42.78;101109.78;4861460;29;8885;-80
2021/09/12 07:10:10;;;;;;;;;25.25;24.75;;;;;25.08;41.33;101098.63;4861521;29;8861;-86
2021/09/12 07:13:05;;;;;;;;;24.75;23.50;;;;;25.18;40.95;101103.38;4859696;29;9001;-81
2021/09/12 07:16:01;;;;;;;;;26.75;26.00;;;;;25.30;41.14;101105.63;4867863;29;8941;-78
2021/09/12 07:18:56;;;;;;;;;16.80;15.20;;;;;25.47;40.07;101112.34;4879252;29;8859;-81
2021/09/12 07:21:52;;;;;;;;;19.00;19.00;;;;;25.68;38.45;101103.53;4877639;29;8991;-80
2021/09/12 07:24:48;;;;;;;;;25.60;25.60;;;;;25.97;38.96;101106.81;4885481;29;8865;-75
2021/09/12 07:27:43;;;;;;;;;20.40;20.40;;;;;26.18;39.42;101102.88;4861408;29;8868;-74
2021/09/12 07:30:39;;;;;;;;;23.80;23.20;;;;;26.21;38.75;101107.66;4861066;29;8877;-79
2021/09/12 07:33:35;;;;;;;;;25.80;25.80;;;;;26.50;40.89;101102.38;4871425;29;8905;-80
2021/09/12 07:36:30;;;;;;;;;17.20;17.20;;;;;26.58;37.34;101106.69;4860549;29;9674;-75
2021/09/12 07:39:26;;;;;;;;;16.20;16.20;;;;;26.75;36.17;101101.94;4872868;29;9596;-77
2021/09/12 07:42:21;;;;;;;;;37.25;34.00;;;;;26.59;42.24;101111.13;4843304;29;8877;-77
2021/09/12 07:45:18;;;;;;;;;38.50;35.00;;;;;26.30;40.13;101104.28;4859164;29;8881;-80
2021/09/12 07:48:13;;;;;;;;;30.60;29.00;;;;;26.55;42.17;101101.09;4861190;29;8874;-77
2021/09/12 07:51:09;;;;;;;;;18.00;17.20;;;;;26.60;41.96;101098.56;4860666;29;8877;-82
2021/09/12 07:54:04;;;;;;;;;28.80;27.80;;;;;26.44;38.54;101100.47;4865011;29;9004;-83
2021/09/12 07:57:00;;;;;;;;;15.00;15.00;;;;;26.59;36.37;101093.31;4859587;29;8888;-76
2021/09/12 07:59:57;;;;;;;;;13.80;13.80;;;;;26.83;35.54;101091.25;4851189;29;8881;-75
2021/09/12 08:02:53;;;;;;;;;36.00;32.75;;;;;26.75;38.52;101084.13;4859386;29;8888;-76
2021/09/12 08:05:48;;;;;;;;;24.20;23.60;;;;;26.97;41.83;101084.53;4857538;29;8911;-76
2021/09/12 08:08:44;;;;;;;;;21.40;21.40;;;;;27.21;39.63;101082.47;4858780;29;8983;-75
2021/09/12 08:11:40;;;;;;;;;7.00;7.00;;;;;27.57;33.63;101076.84;4866875;29;8949;-75
2021/09/12 08:14:37;;;;;;;;;2.60;2.60;;;;;27.88;31.71;101077.41;4864420;29;8893;-75
2021/09/12 08:17:32;;;;;;;;;2.60;2.60;;;;;28.29;30.58;101082.50;4864385;29;8877;-77
2021/09/12 08:20:28;;;;;;;;;3.00;3.00;;;;;28.43;29.56;101075.69;4879761;29;9102;-77
2021/09/12 08:23:23;;;;;;;;;2.80;2.80;;;;;28.59;29.61;101089.09;4862927;29;8873;-77
2021/09/12 08:26:21;;;;;;;;;2.40;2.40;;;;;28.52;27.79;101070.16;4844541;29;9694;-77
2021/09/12 08:29:17;;;;;;;;;2.00;2.00;;;;;28.81;27.96;101070.22;4865438;29;8867;-77
2021/09/12 08:32:12;;;;;;;;;1.60;1.60;;;;;28.84;27.65;101072.19;4872550;29;8869;-76
2021/09/12 08:35:08;;;;;;;;;4.40;4.40;;;;;28.97;28.24;101064.53;4871961;29;8882;-75
2021/09/12 08:38:04;;;;;;;;;6.00;6.00;;;;;29.01;28.33;101065.22;4868012;29;8892;-75
2021/09/12 08:41:00;;;;;;;;;5.80;5.80;;;;;29.28;28.01;101064.84;4863597;29;8861;-76
2021/09/12 08:43:56;;;;;;;;;3.00;3.00;;;;;29.49;27.43;101066.28;4862927;29;8857;-76
2021/09/12 08:46:51;;;;;;;;;2.00;2.00;;;;;29.48;27.15;101058.19;4862760;29;8861;-77
2021/09/12 08:49:47;;;;;;;;;2.00;2.00;;;;;29.55;27.47;101055.97;4863254;29;9667;-75
2021/09/12 08:52:48;;;;;;;;;4.00;4.00;;;;;29.50;26.88;101061.41;4861173;29;8972;-78
2021/09/12 08:55:44;;;;;;;;;2.20;2.20;;;;;29.33;27.43;101052.91;4862871;29;8881;-75
2021/09/12 08:58:39;;;;;;;;;2.20;2.20;;;;;29.60;27.10;101049.72;4861543;29;8880;-76
2021/09/12 09:01:37;;;;;;;;;2.80;2.80;;;;;29.74;27.03;101057.00;4863106;29;8968;-76
2021/09/12 09:04:35;;;;;;;;;2.40;2.40;;;;;29.51;26.85;101046.72;4861115;29;9663;-77
2021/09/12 09:07:32;;;;;;;;;2.80;2.80;;;;;29.52;27.94;101048.31;4862792;29;8865;-74
2021/09/12 09:10:28;;;;;;;;;6.00;6.00;;;;;29.99;26.87;101047.66;4854122;29;8871;-76
2021/09/12 09:13:29;;;;;;;;;7.20;7.20;;;;;30.02;25.73;101041.03;4844191;29;8959;-76
2021/09/12 09:16:28;;;;;;;;;3.20;3.20;;;;;30.02;25.84;101049.59;4860054;29;8875;-74
2021/09/12 09:19:23;;;;;;;;;3.20;3.20;;;;;30.02;26.25;101049.59;4859218;29;9056;-76
2021/09/12 09:22:43;;;;;;;;;2.80;2.80;;;;;29.69;26.13;101043.31;4868154;29;8870;-76
2021/09/12 09:25:38;;;;;;;;;2.40;2.40;;;;;29.47;25.80;101045.19;4878147;29;8895;-77
2021/09/12 09:28:34;;;;;;;;;9.00;9.00;;;;;29.29;26.30;101040.84;4852890;29;9568;-75
2021/09/12 09:31:30;;;;;;;;;9.20;7.80;;;;;29.46;26.65;101041.56;4864261;29;8883;-76
2021/09/12 09:34:26;;;;;;;;;3.00;3.00;;;;;29.48;26.08;101041.91;4872465;29;8885;-76
2021/09/12 09:37:21;;;;;;;;;2.00;2.00;;;;;29.49;26.38;101039.84;4860718;29;9645;-75
2021/09/12 09:40:17;;;;;;;;;2.00;2.00;;;;;29.69;26.26;101037.63;4862210;29;8960;-75
2021/09/12 09:43:16;;;;;;;;;5.00;5.00;;;;;29.58;26.96;101037.94;4862112;29;8896;-76
2021/09/12 09:46:35;;;;;;;;;7.40;7.40;;;;;29.94;26.31;101033.19;4861788;29;8941;-75
2021/09/12 09:49:32;;;;;;;;;8.60;5.20;;;;;30.32;26.91;101036.03;4860213;29;8872;-76
2021/09/12 09:52:27;;;;;;;;;2.00;2.00;;;;;30.46;26.34;101041.25;4860775;29;9604;-75
2021/09/12 09:55:25;;;;;;;;;7.20;7.20;;;;;30.09;25.99;101032.28;4857229;29;8876;-76
2021/09/12 09:58:21;;;;;;;;;10.40;10.40;;;;;30.38;26.11;101031.34;4859432;29;8884;-77
2021/09/12 10:01:17;;;;;;;;;1.80;1.80;;;;;30.61;26.37;101033.78;4861515;29;8995;-77
2021/09/12 10:04:13;;;;;;;;;1.40;1.40;;;;;30.76;25.22;101033.31;4847314;29;8873;-77
2021/09/12 10:07:11;;;;;;;;;1.40;1.40;;;;;30.51;24.81;101037.78;4861911;29;8896;-77
2021/09/12 10:10:10;;;;;;;;;2.00;2.00;;;;;31.29;24.41;101016.28;4844819;29;8935;-77
2021/09/12 10:13:07;;;;;;;;;1.00;1.00;;;;;31.70;24.25;101000.75;4845000;29;8929;-77
2021/09/12 10:16:03;;;;;;;;;2.00;2.00;;;;;32.16;23.82;101004.59;4844765;29;8852;-78
2021/09/12 10:18:58;;;;;;;;;5.20;5.20;;;;;32.25;24.16;101004.59;4847602;29;8884;-73
2021/09/12 10:21:59;;;;;;;;;2.40;2.40;;;;;31.85;25.54;101013.25;4861484;29;8972;-76
2021/09/12 10:25:00;;;;;;;;;3.20;2.20;;;;;31.60;24.20;100999.13;4861484;29;8916;-76
2021/09/12 10:27:56;;;;;;;;;3.00;3.00;;;;;31.64;24.41;100996.91;4859994;29;8861;-77
2021/09/12 10:30:52;;;;;;;;;5.80;5.80;;;;;31.79;24.25;101003.69;4860172;29;8861;-75
2021/09/12 10:34:03;;;;;;;;;3.00;3.00;;;;;32.03;24.25;100998.19;4861314;29;8877;-76
2021/09/12 10:37:31;;;;;;;;;2.00;2.00;;;;;32.13;24.28;101005.53;4871206;29;9616;-75
2021/09/12 10:40:53;;;;;;;;;1.20;1.20;;;;;32.34;23.52;101007.50;4861640;29;8873;-76
2021/09/12 10:43:50;;;;;;;;;1.00;1.00;;;;;32.50;23.36;101003.53;4850980;29;8980;-76
2021/09/12 10:47:08;;;;;;;;;0.00;0.00;;;;;32.97;24.08;101005.16;4861143;29;8892;-75
2021/09/12 10:50:36;;;;;;;;;3.00;3.00;;;;;33.18;23.02;101000.50;4861158;29;8975;-78
2021/09/12 10:53:44;;;;;;;;;3.00;3.00;;;;;33.43;23.17;100997.31;4861214;29;8872;-78
2021/09/12 10:56:40;;;;;;;;;7.60;7.60;;;;;33.44;22.37;100998.09;4860982;29;8891;-76
2021/09/12 10:59:35;;;;;;;;;5.80;5.00;;;;;33.78;21.72;101001.78;4860775;29;8853;-79
2021/09/12 11:02:32;;;;;;;;;5.40;3.60;;;;;33.57;22.57;100995.81;4859538;29;8893;-76
2021/09/12 11:05:28;;;;;;;;;4.60;4.60;;;;;33.77;23.37;100991.59;4860713;29;8896;-77
2021/09/12 11:08:40;;;;;;;;;3.00;2.80;;;;;33.80;23.05;100990.63;4860230;29;8853;-77
2021/09/12 11:11:35;;;;;;;;;1.20;1.20;;;;;33.40;22.93;100983.13;4860817;29;8903;-78
2021/09/12 11:14:32;;;;;;;;;1.00;1.00;;;;;33.56;23.68;100979.09;4861646;29;8865;-78
2021/09/12 11:17:28;;;;;;;;;1.00;1.00;;;;;33.78;23.39;100981.72;4860644;29;8876;-79
2021/09/12 11:20:44;;;;;;;;;1.40;1.40;;;;;33.80;23.70;100979.94;4860549;29;8915;-78
2021/09/12 11:23:40;;;;;;;;;0.80;0.80;;;;;34.09;22.82;100972.78;4861181;29;8881;-78
2021/09/12 11:26:52;;;;;;;;;0.80;0.80;;;;;34.11;24.02;100968.16;4860576;29;8897;-78
2021/09/12 11:29:48;;;;;;;;;4.00;4.00;;;;;34.02;23.56;100962.47;4860693;29;9632;-76
2021/09/12 11:32:50;;;;;;;;;6.60;5.20;;;;;33.88;23.85;100963.94;4860419;29;8869;-79
2021/09/12 11:36:02;;;;;;;;;5.60;5.60;;;;;34.00;23.52;100974.44;4860429;29;8924;-78
2021/09/12 11:38:59;;;;;;;;;1.20;1.20;;;;;34.09;24.27;100964.97;4860445;29;8979;-78
2021/09/12 11:41:57;;;;;;;;;6.20;3.00;;;;;33.68;23.10;100955.94;4860414;29;8869;-77
2021/09/12 11:44:55;;;;;;;;;0.60;0.60;;;;;33.80;23.29;100959.06;4860411;29;9632;-77
2021/09/12 11:47:51;;;;;;;;;1.00;1.00;;;;;33.69;22.96;100951.78;4858731;29;8864;-74
2021/09/12 11:50:47;;;;;;;;;1.00;1.00;;;;;34.07;24.16;100949.53;4860390;29;8873;-77
2021/09/12 11:53:42;;;;;;;;;1.40;1.40;;;;;33.74;24.19;100947.47;4861850;29;8850;-78
2021/09/12 11:56:41;;;;;;;;;1.00;1.00;;;;;34.13;23.40;100950.47;4862525;29;8992;-78
2021/09/12 11:59:45;;;;;;;;;2.00;2.00;;;;;34.55;23.60;100938.81;4862500;29;8911;-76
2021/09/12 12:02:43;;;;;;;;;5.60;5.60;;;;;34.63;22.90;100942.91;4864016;29;8865;-77
2021/09/12 12:05:41;;;;;;;;;5.60;5.60;;;;;34.64;22.86;100946.56;4863106;29;8877;-77
2021/09/12 12:09:04;;;;;;;;;2.80;2.80;;;;;34.25;22.96;100943.66;4864096;29;8884;-76
2021/09/12 12:12:14;;;;;;;;;4.80;4.80;;;;;34.88;22.70;100943.63;4864233;29;8872;-75
2021/09/12 12:15:10;;;;;;;;;4.00;4.00;;;;;34.80;21.98;100944.00;4863830;29;9688;-75
2021/09/12 12:18:16;;;;;;;;;4.00;4.00;;;;;34.76;21.73;100940.53;4864247;29;8877;-78
2021/09/12 12:21:12;;;;;;;;;4.80;4.80;;;;;34.78;22.28;100937.16;4862587;29;8869;-77
2021/09/12 12:24:13;;;;;;;;;4.40;4.20;;;;;34.92;22.78;100936.41;4864613;29;9667;-75
2021/09/12 12:27:11;;;;;;;;;5.80;5.80;;;;;34.69;21.88;100931.53;4861746;29;9608;-76
2021/09/12 12:30:07;;;;;;;;;6.20;6.20;;;;;34.88;23.13;100937.88;4863552;29;8865;-74
2021/09/12 12:33:04;;;;;;;;;6.40;6.40;;;;;34.65;21.74;100925.16;4863513;29;8869;-77
2021/09/12 12:36:16;;;;;;;;;10.20;10.20;;;;;34.73;23.10;100934.97;4863537;29;8853;-77
2021/09/12 12:39:13;;;;;;;;;3.80;3.80;;;;;34.54;22.96;100923.66;4864106;29;8989;-78
2021/09/12 12:42:10;;;;;;;;;17.00;17.00;;;;;34.79;23.29;100930.94;4863637;29;8892;-77
2021/09/12 12:45:18;;;;;;;;;16.80;16.80;;;;;34.56;22.93;100926.84;4863299;29;8990;-76
2021/09/12 12:48:13;;;;;;;;;3.00;3.00;;;;;34.13;22.70;100928.28;4863492;29;8979;-76
2021/09/12 12:51:12;;;;;;;;;14.40;14.40;;;;;33.55;23.95;100925.91;4863163;29;8887;-77
2021/09/12 12:54:20;;;;;;;;;3.60;3.60;;;;;34.07;23.64;100915.91;4863002;29;8945;-77
2021/09/12 12:57:15;;;;;;;;;4.40;4.40;;;;;34.31;22.82;100923.69;4863005;29;8996;-76
2021/09/12 13:00:11;;;;;;;;;5.00;5.00;;;;;33.52;23.35;100918.28;4860666;29;9015;-74
2021/09/12 13:03:07;;;;;;;;;1.20;1.20;;;;;33.57;23.66;100918.38;4862322;29;8853;-75
2021/09/12 13:06:05;;;;;;;;;3.40;3.40;;;;;33.16;23.58;100908.50;4862145;29;8858;-75
2021/09/12 13:09:01;;;;;;;;;2.00;2.00;;;;;33.49;23.88;100910.63;4861934;29;8881;-74
2021/09/12 13:11:56;;;;;;;;;5.00;4.00;;;;;33.16;24.17;100912.16;4862879;29;8869;-75
2021/09/12 13:14:52;;;;;;;;;2.20;2.20;;;;;33.00;24.85;100912.53;4861530;29;9025;-75
2021/09/12 13:17:48;;;;;;;;;2.40;1.40;;;;;32.64;24.29;100914.16;4862592;29;8864;-75
2021/09/12 13:20:48;;;;;;;;;1.40;1.40;;;;;33.04;23.92;100912.34;4862613;29;9553;-75
2021/09/12 13:23:44;;;;;;;;;3.00;3.00;;;;;33.06;24.46;100907.75;4861819;29;8934;-74
2021/09/12 13:26:39;;;;;;;;;3.40;3.40;;;;;33.24;23.88;100900.38;4860887;29;8859;-74
2021/09/12 13:29:35;;;;;;;;;2.20;2.20;;;;;33.34;24.52;100902.69;4866979;29;8874;-75
2021/09/12 13:32:31;;;;;;;;;1.20;1.20;;;;;33.19;23.91;100907.53;4877116;29;8880;-74
2021/09/12 13:35:27;;;;;;;;;1.80;1.80;;;;;33.29;24.56;100914.06;4858323;29;8865;-75